createdAt,value
2023-02-06T00:01:02.467Z,100.00
2023-02-06T00:04:05.541Z,100.00
2023-02-06T00:07:08.066Z,100.00
2023-02-06T00:10:11.039Z,100.00
2023-02-06T00:13:13.553Z,100.00
2023-02-06T00:16:26.514Z,100.00
2023-02-06T00:19:29.304Z,100.00
2023-02-06T00:22:32.153Z,100.00
2023-02-06T00:25:35.056Z,100.00
2023-02-06T00:28:38.336Z,100.00
2023-02-06T00:31:41.122Z,100.00
2023-02-06T00:34:44.172Z,100.00
2023-02-06T00:37:46.733Z,100.00
2023-02-06T00:40:50.612Z,100.00
2023-02-06T00:43:53.263Z,100.00
2023-02-06T00:46:56.196Z,100.00
2023-02-06T00:49:58.850Z,100.00
2023-02-06T00:53:01.788Z,100.00
2023-02-06T00:56:04.572Z,100.00
2023-02-06T00:59:08.403Z,100.00
2023-02-06T01:02:11.445Z,100.00
2023-02-06T01:05:14.387Z,100.00
2023-02-06T01:08:17.080Z,100.00
2023-02-06T01:11:23.172Z,100.00
2023-02-06T01:14:25.679Z,100.00
2023-02-06T01:17:29.465Z,100.00
2023-02-06T01:20:32.267Z,100.00
2023-02-06T01:23:35.394Z,100.00
2023-02-06T01:26:37.974Z,100.00
2023-02-06T01:29:40.912Z,100.00
2023-02-06T01:32:43.618Z,100.00
2023-02-06T01:35:54.401Z,100.00
2023-02-06T01:38:57.115Z,100.00
2023-02-06T01:42:00.099Z,100.00
2023-02-06T01:45:21.298Z,100.00
2023-02-06T01:48:51.340Z,99.58
2023-02-06T01:51:57.608Z,99.48
2023-02-06T01:55:04.363Z,99.82
2023-02-06T01:58:10.759Z,100.00
2023-02-06T02:01:15.795Z,100.00
2023-02-06T02:04:21.363Z,99.98
2023-02-06T02:07:32.488Z,99.17
2023-02-06T02:10:35.615Z,98.68
2023-02-06T02:13:39.127Z,98.34
2023-02-06T02:17:03.641Z,98.26
2023-02-06T02:20:26.290Z,98.46
2023-02-06T02:23:58.983Z,96.81
2023-02-06T02:27:25.625Z,96.28
2023-02-06T02:31:02.966Z,94.82
2023-02-06T02:34:36.767Z,93.90
2023-02-06T02:38:28.876Z,94.31
2023-02-06T02:41:53.820Z,93.74
2023-02-06T02:45:06.407Z,94.66
2023-02-06T02:48:15.215Z,94.72
2023-02-06T02:51:18.190Z,95.49
2023-02-06T02:54:21.224Z,95.11
2023-02-06T02:57:29.812Z,95.11
2023-02-06T03:00:38.748Z,94.19
2023-02-06T03:03:45.405Z,94.75
2023-02-06T03:07:13.810Z,95.36
2023-02-06T03:10:48.305Z,95.97
2023-02-06T03:14:04.356Z,95.35
2023-02-06T03:17:10.957Z,95.53
2023-02-06T03:20:16.427Z,95.71
2023-02-06T03:23:25.834Z,96.25
2023-02-06T03:26:30.949Z,97.30
2023-02-06T03:29:37.026Z,97.68
2023-02-06T03:32:50.398Z,97.30
2023-02-06T03:35:53.725Z,96.92
2023-02-06T03:38:56.667Z,97.55
2023-02-06T03:42:01.276Z,98.44
2023-02-06T03:45:07.392Z,98.92
2023-02-06T03:48:21.831Z,98.74
2023-02-06T03:51:31.089Z,98.56
2023-02-06T03:54:37.292Z,98.36
2023-02-06T03:57:44.582Z,98.62
2023-02-06T04:00:48.310Z,99.70
2023-02-06T04:03:51.851Z,99.72
2023-02-06T04:07:17.762Z,100.00
2023-02-06T04:10:20.983Z,100.00
2023-02-06T04:13:23.672Z,100.00
2023-02-06T04:16:26.731Z,100.00
2023-02-06T04:19:29.755Z,100.00
2023-02-06T04:22:32.817Z,100.00
2023-02-06T04:25:36.055Z,100.00
2023-02-06T04:28:39.157Z,100.00
2023-02-06T04:31:42.479Z,100.00
2023-02-06T04:34:45.383Z,100.00
2023-02-06T04:37:52.437Z,100.00
2023-02-06T04:40:55.268Z,100.00
2023-02-06T04:43:57.999Z,100.00
2023-02-06T04:47:01.903Z,100.00
2023-02-06T04:50:05.453Z,100.00
2023-02-06T04:53:09.093Z,100.00
2023-02-06T04:56:12.866Z,100.00
2023-02-06T04:59:16.238Z,100.00
2023-02-06T05:02:18.865Z,100.00
2023-02-06T05:05:22.019Z,100.00
2023-02-06T05:08:24.605Z,100.00
2023-02-06T05:11:27.481Z,100.00
2023-02-06T05:14:30.106Z,100.00
2023-02-06T05:17:33.100Z,100.00
2023-02-06T05:20:36.220Z,100.00
2023-02-06T05:23:41.390Z,100.00
2023-02-06T05:26:45.046Z,100.00
2023-02-06T05:29:48.036Z,100.00
2023-02-06T05:32:51.305Z,100.00
2023-02-06T05:35:54.262Z,100.00
2023-02-06T05:38:56.950Z,100.00
2023-02-06T05:41:59.970Z,100.00
2023-02-06T05:45:02.681Z,100.00
2023-02-06T05:48:05.707Z,100.00
2023-02-06T05:51:09.334Z,100.00
2023-02-06T05:54:12.541Z,99.06
2023-02-06T05:57:15.080Z,98.78
2023-02-06T06:00:18.777Z,99.12
2023-02-06T06:03:22.729Z,98.47
2023-02-06T06:06:25.316Z,97.28
2023-02-06T06:09:28.227Z,96.91
2023-02-06T06:12:30.793Z,96.69
2023-02-06T06:15:34.232Z,96.73
2023-02-06T06:18:37.208Z,95.27
2023-02-06T06:21:40.115Z,93.11
2023-02-06T06:24:42.726Z,93.63
2023-02-06T06:27:45.826Z,93.67
2023-02-06T06:30:48.417Z,93.39
2023-02-06T06:33:51.461Z,93.69
2023-02-06T06:36:54.174Z,92.98
2023-02-06T06:39:57.057Z,92.87
2023-02-06T06:42:59.717Z,92.76
2023-02-06T06:46:04.757Z,92.71
2023-02-06T06:49:07.564Z,92.48
2023-02-06T06:52:19.799Z,91.06
2023-02-06T06:55:26.996Z,91.04
2023-02-06T06:58:30.100Z,91.36
2023-02-06T07:01:32.882Z,90.62
2023-02-06T07:04:35.926Z,89.97
2023-02-06T07:07:39.492Z,89.88
2023-02-06T07:10:47.225Z,89.76
2023-02-06T07:13:50.054Z,88.28
2023-02-06T07:16:52.904Z,87.89
2023-02-06T07:19:55.624Z,87.41
2023-02-06T07:22:58.695Z,87.12
2023-02-06T07:26:02.402Z,85.95
2023-02-06T07:29:05.329Z,83.27
2023-02-06T07:32:08.043Z,82.48
2023-02-06T07:35:11.250Z,81.01
2023-02-06T07:38:13.890Z,79.86
2023-02-06T07:41:18.109Z,77.44
2023-02-06T07:44:20.794Z,76.80
2023-02-06T07:47:23.622Z,76.71
2023-02-06T07:50:26.432Z,75.15
2023-02-06T07:53:29.277Z,75.25
2023-02-06T07:56:31.992Z,74.42
2023-02-06T07:59:34.942Z,73.76
2023-02-06T08:02:37.634Z,71.43
2023-02-06T08:05:40.614Z,70.54
2023-02-06T08:08:44.646Z,69.14
2023-02-06T08:11:47.665Z,67.47
2023-02-06T08:14:50.270Z,64.95
2023-02-06T08:17:53.306Z,65.84
2023-02-06T08:21:01.548Z,64.52
2023-02-06T08:24:04.773Z,62.33
2023-02-06T08:27:07.400Z,59.94
2023-02-06T08:30:11.843Z,60.88
2023-02-06T08:33:14.802Z,61.13
2023-02-06T08:36:20.003Z,57.78
2023-02-06T08:39:22.755Z,58.84
2023-02-06T08:42:25.746Z,57.74
2023-02-06T08:45:28.330Z,57.37
2023-02-06T08:48:31.276Z,56.76
2023-02-06T08:51:35.480Z,56.34
2023-02-06T08:54:38.973Z,56.97
2023-02-06T08:57:41.577Z,56.64
2023-02-06T09:00:44.469Z,55.68
2023-02-06T09:03:47.642Z,56.22
2023-02-06T09:06:52.140Z,55.50
2023-02-06T09:09:54.877Z,55.51
2023-02-06T09:12:58.348Z,55.14
2023-02-06T09:16:00.990Z,55.17
2023-02-06T09:19:04.509Z,55.25
2023-02-06T09:22:07.345Z,56.54
2023-02-06T09:25:11.046Z,55.93
2023-02-06T09:28:14.351Z,54.42
2023-02-06T09:31:17.421Z,53.40
2023-02-06T09:34:20.043Z,54.30
2023-02-06T09:37:23.491Z,54.28
2023-02-06T09:40:28.182Z,54.98
2023-02-06T09:43:33.340Z,55.66
2023-02-06T09:46:41.243Z,55.90
2023-02-06T09:49:51.479Z,54.94
2023-02-06T09:52:54.005Z,55.10
2023-02-06T09:56:34.285Z,55.18
2023-02-06T09:59:47.898Z,54.13
2023-02-06T10:03:17.231Z,54.86
2023-02-06T10:06:27.973Z,54.41
2023-02-06T10:09:41.542Z,53.61
2023-02-06T10:12:56.232Z,52.66
2023-02-06T10:16:07.373Z,54.98
2023-02-06T10:19:21.464Z,53.62
2023-02-06T10:22:24.371Z,53.06
2023-02-06T10:25:32.431Z,52.12
2023-02-06T10:28:35.425Z,52.37
2023-02-06T10:32:11.604Z,52.67
2023-02-06T10:35:17.224Z,52.90
2023-02-06T10:38:20.076Z,51.77
2023-02-06T10:41:41.414Z,51.83
2023-02-06T10:44:51.781Z,51.06
2023-02-06T10:48:01.794Z,50.52
2023-02-06T10:51:25.361Z,51.51
2023-02-06T10:54:39.141Z,52.04
2023-02-06T10:57:44.713Z,51.54
2023-02-06T11:00:50.212Z,51.29
2023-02-06T11:04:05.537Z,50.47
2023-02-06T11:07:15.751Z,49.97
2023-02-06T11:10:24.973Z,50.31
2023-02-06T11:13:35.161Z,49.80
2023-02-06T11:16:38.890Z,50.37
2023-02-06T11:19:44.482Z,51.58
2023-02-06T11:22:53.190Z,50.00
2023-02-06T11:26:14.294Z,51.54
2023-02-06T11:29:24.727Z,51.10
2023-02-06T11:32:52.797Z,50.76
2023-02-06T11:36:07.480Z,50.77
2023-02-06T11:39:36.088Z,51.54
2023-02-06T11:42:39.129Z,52.07
2023-02-06T11:45:41.990Z,52.21
2023-02-06T11:49:01.752Z,51.66
2023-02-06T11:52:04.723Z,51.91
2023-02-06T11:55:20.625Z,51.61
2023-02-06T11:58:26.694Z,51.67
2023-02-06T12:01:38.535Z,50.24
2023-02-06T12:04:41.654Z,50.28
2023-02-06T12:08:05.597Z,48.90
2023-02-06T12:11:16.403Z,49.64
2023-02-06T12:14:24.803Z,49.29
2023-02-06T12:17:33.834Z,49.55
2023-02-06T12:20:51.965Z,49.78
2023-02-06T12:23:59.667Z,48.77
2023-02-06T12:27:17.460Z,47.55
2023-02-06T12:30:34.979Z,47.81
2023-02-06T12:33:47.879Z,48.07
2023-02-06T12:37:10.741Z,48.17
2023-02-06T12:40:18.971Z,49.27
2023-02-06T12:43:22.236Z,48.91
2023-02-06T12:46:27.720Z,48.21
2023-02-06T12:49:43.763Z,49.20
2023-02-06T12:52:58.542Z,48.85
2023-02-06T12:56:12.701Z,49.31
2023-02-06T12:59:34.732Z,50.26
2023-02-06T13:02:40.831Z,49.84
2023-02-06T13:05:53.218Z,48.65
2023-02-06T13:09:02.436Z,48.36
2023-02-06T13:12:19.494Z,48.26
2023-02-06T13:15:39.854Z,49.53
2023-02-06T13:18:44.570Z,50.53
2023-02-06T13:21:52.251Z,49.50
2023-02-06T13:24:57.712Z,50.06
2023-02-06T13:28:21.852Z,49.65
2023-02-06T13:31:27.532Z,50.61
2023-02-06T13:34:30.564Z,50.15
2023-02-06T13:37:45.542Z,49.88
2023-02-06T13:41:14.380Z,48.68
2023-02-06T13:44:35.155Z,50.17
2023-02-06T13:47:52.930Z,49.00
2023-02-06T13:51:13.674Z,48.94
2023-02-06T13:54:44.928Z,49.21
2023-02-06T13:58:19.495Z,48.91
2023-02-06T14:01:28.016Z,48.89
2023-02-06T14:04:33.383Z,50.47
2023-02-06T14:08:01.889Z,51.75
2023-02-06T14:11:04.632Z,51.22
2023-02-06T14:14:33.785Z,51.14
2023-02-06T14:18:02.996Z,51.02
2023-02-06T14:21:08.574Z,50.52
2023-02-06T14:24:40.488Z,50.92
2023-02-06T14:28:17.256Z,50.48
2023-02-06T14:31:41.507Z,50.00
2023-02-06T14:35:02.289Z,48.73
2023-02-06T14:38:14.129Z,47.11
2023-02-06T14:41:17.616Z,46.38
2023-02-06T14:44:24.334Z,44.07
2023-02-06T14:47:30.576Z,43.60
2023-02-06T14:50:42.246Z,42.66
2023-02-06T14:53:58.937Z,42.42
2023-02-06T14:57:05.310Z,44.58
2023-02-06T15:00:20.518Z,45.98
2023-02-06T15:03:25.802Z,48.65
2023-02-06T15:06:35.498Z,49.68
2023-02-06T15:09:44.002Z,51.20
2023-02-06T15:12:53.772Z,52.91
2023-02-06T15:15:57.339Z,53.65
2023-02-06T15:19:13.380Z,53.70
2023-02-06T15:22:27.442Z,54.99
2023-02-06T15:25:39.726Z,55.34
2023-02-06T15:28:44.338Z,55.69
2023-02-06T15:31:49.078Z,56.48
2023-02-06T15:34:52.271Z,56.50
2023-02-06T15:37:56.633Z,57.21
2023-02-06T15:41:07.210Z,57.74
2023-02-06T15:44:12.379Z,58.06
2023-02-06T15:47:17.797Z,58.87
2023-02-06T15:50:24.022Z,59.01
2023-02-06T15:53:37.330Z,59.16
2023-02-06T15:56:42.054Z,60.73
2023-02-06T15:59:45.472Z,62.23
2023-02-06T16:02:48.109Z,62.76
2023-02-06T16:05:52.465Z,63.75
2023-02-06T16:08:58.330Z,63.08
2023-02-06T16:12:01.576Z,64.07
2023-02-06T16:15:30.108Z,64.72
2023-02-06T16:18:36.424Z,63.94
2023-02-06T16:21:42.208Z,64.83
2023-02-06T16:24:46.432Z,65.05
2023-02-06T16:27:51.303Z,65.06
2023-02-06T16:31:00.868Z,65.88
2023-02-06T16:34:36.601Z,66.57
2023-02-06T16:37:39.675Z,68.50
2023-02-06T16:40:43.120Z,69.13
2023-02-06T16:43:46.089Z,69.12
2023-02-06T16:46:48.714Z,68.63
2023-02-06T16:49:52.253Z,67.54
2023-02-06T16:52:58.516Z,67.95
2023-02-06T16:56:02.334Z,67.61
2023-02-06T16:59:04.952Z,68.08
2023-02-06T17:02:17.335Z,68.75
2023-02-06T17:05:25.495Z,70.01
2023-02-06T17:08:29.139Z,70.18
2023-02-06T17:11:32.205Z,70.48
2023-02-06T17:14:35.134Z,71.52
2023-02-06T17:17:38.176Z,72.22
2023-02-06T17:20:44.597Z,73.04
2023-02-06T17:23:52.133Z,74.53
2023-02-06T17:26:54.995Z,76.08
2023-02-06T17:29:57.710Z,77.24
2023-02-06T17:33:00.648Z,78.38
2023-02-06T17:36:07.582Z,78.66
2023-02-06T17:39:13.209Z,79.16
2023-02-06T17:42:16.352Z,78.53
2023-02-06T17:45:19.305Z,79.37
2023-02-06T17:48:22.085Z,79.86
2023-02-06T17:51:25.038Z,80.24
2023-02-06T17:54:27.749Z,80.34
2023-02-06T17:57:30.830Z,81.03
2023-02-06T18:00:34.336Z,81.66
2023-02-06T18:03:37.516Z,81.62
2023-02-06T18:06:40.496Z,82.15
2023-02-06T18:09:43.660Z,82.61
2023-02-06T18:12:46.482Z,82.42
2023-02-06T18:15:56.709Z,82.92
2023-02-06T18:18:59.493Z,84.52
2023-02-06T18:22:02.423Z,85.26
2023-02-06T18:25:05.229Z,85.73
2023-02-06T18:28:09.225Z,87.08
2023-02-06T18:31:33.197Z,87.04
2023-02-06T18:34:37.048Z,87.54
2023-02-06T18:37:39.779Z,87.51
2023-02-06T18:40:45.670Z,88.99
2023-02-06T18:43:48.598Z,89.57
2023-02-06T18:46:52.295Z,89.69
2023-02-06T18:49:55.218Z,89.94
2023-02-06T18:52:58.485Z,90.20
2023-02-06T18:56:01.840Z,90.18
2023-02-06T18:59:05.530Z,90.38
2023-02-06T19:02:10.439Z,90.04
2023-02-06T19:05:14.465Z,90.12
2023-02-06T19:08:17.519Z,90.78
2023-02-06T19:11:20.701Z,90.93
2023-02-06T19:14:25.353Z,91.63
2023-02-06T19:17:28.568Z,91.85
2023-02-06T19:20:32.236Z,92.21
2023-02-06T19:23:37.799Z,92.94
2023-02-06T19:26:41.566Z,93.38
2023-02-06T19:29:44.438Z,93.88
2023-02-06T19:32:48.687Z,94.27
2023-02-06T19:35:52.331Z,94.83
2023-02-06T19:38:58.866Z,95.29
2023-02-06T19:42:06.823Z,96.01
2023-02-06T19:45:09.585Z,93.39
2023-02-06T19:48:13.842Z,90.48
2023-02-06T19:51:22.867Z,89.59
2023-02-06T19:54:28.098Z,89.78
2023-02-06T19:57:30.806Z,90.28
2023-02-06T20:00:33.760Z,88.96
2023-02-06T20:03:37.484Z,88.67
2023-02-06T20:06:43.937Z,88.36
2023-02-06T20:09:47.228Z,88.31
2023-02-06T20:12:50.935Z,88.60
2023-02-06T20:15:54.087Z,88.65
2023-02-06T20:18:57.627Z,89.12
2023-02-06T20:22:01.240Z,88.67
2023-02-06T20:25:04.398Z,88.99
2023-02-06T20:28:07.744Z,89.05
2023-02-06T20:31:12.761Z,89.46
2023-02-06T20:34:16.602Z,90.18
2023-02-06T20:37:21.414Z,90.85
2023-02-06T20:40:24.741Z,90.96
2023-02-06T20:43:27.726Z,91.04
2023-02-06T20:46:32.745Z,91.32
2023-02-06T20:49:35.841Z,91.42
2023-02-06T20:52:39.232Z,91.36
2023-02-06T20:55:44.158Z,91.44
2023-02-06T20:58:49.389Z,92.02
2023-02-06T21:01:52.017Z,93.15
2023-02-06T21:04:55.388Z,94.19
2023-02-06T21:07:58.919Z,95.13
2023-02-06T21:11:03.211Z,98.18
2023-02-06T21:14:06.783Z,99.09
2023-02-06T21:17:10.266Z,100.00
2023-02-06T21:20:13.028Z,100.00
2023-02-06T21:23:16.879Z,100.00
2023-02-06T21:26:19.619Z,100.00
2023-02-06T21:29:25.581Z,100.00
2023-02-06T21:32:28.431Z,100.00
2023-02-06T21:35:33.792Z,100.00
2023-02-06T21:38:43.497Z,100.00
2023-02-06T21:41:51.498Z,100.00
2023-02-06T21:44:54.098Z,100.00
2023-02-06T21:47:57.133Z,100.00
2023-02-06T21:51:07.774Z,100.00
2023-02-06T21:54:11.029Z,100.00
2023-02-06T21:57:13.926Z,100.00
2023-02-06T22:00:18.808Z,100.00
2023-02-06T22:03:22.944Z,100.00
2023-02-06T22:06:26.967Z,100.00
2023-02-06T22:09:30.226Z,100.00
2023-02-06T22:12:33.241Z,100.00
2023-02-06T22:15:36.463Z,100.00
2023-02-06T22:18:39.896Z,100.00
2023-02-06T22:21:42.838Z,100.00
2023-02-06T22:24:45.484Z,100.00
2023-02-06T22:27:48.464Z,100.00
2023-02-06T22:30:51.417Z,100.00
2023-02-06T22:33:55.090Z,100.00
2023-02-06T22:36:58.101Z,100.00
2023-02-06T22:40:00.967Z,100.00
2023-02-06T22:43:03.564Z,100.00
2023-02-06T22:46:07.649Z,100.00
2023-02-06T22:49:10.670Z,100.00
2023-02-06T22:52:31.809Z,100.00
2023-02-06T22:55:57.893Z,100.00
2023-02-06T22:59:06.392Z,100.00
2023-02-06T23:02:09.030Z,100.00
2023-02-06T23:05:11.970Z,100.00
2023-02-06T23:08:19.249Z,100.00
2023-02-06T23:11:23.181Z,100.00
2023-02-06T23:14:27.574Z,100.00
2023-02-06T23:17:30.593Z,100.00
2023-02-06T23:20:38.631Z,100.00
2023-02-06T23:23:42.648Z,100.00
2023-02-06T23:26:47.251Z,100.00
2023-02-06T23:29:50.502Z,100.00
2023-02-06T23:32:53.097Z,100.00
2023-02-06T23:36:02.893Z,100.00
2023-02-06T23:39:06.142Z,100.00
2023-02-06T23:42:09.076Z,100.00
2023-02-06T23:45:12.223Z,100.00
2023-02-06T23:48:15.298Z,100.00
2023-02-06T23:51:19.149Z,100.00
2023-02-06T23:54:22.039Z,100.00
2023-02-06T23:57:24.711Z,100.00
